createdAt,value
2018-04-12T00:00:17.749Z,14.10
2018-04-12T00:02:45.231Z,9.13
2018-04-12T00:05:12.745Z,9.95
2018-04-12T00:07:40.229Z,14.90
2018-04-12T00:10:08.481Z,13.60
2018-04-12T00:12:36.749Z,17.65
2018-04-12T00:15:04.229Z,11.10
2018-04-12T00:17:32.493Z,18.48
2018-04-12T00:19:59.969Z,13.93
2018-04-12T00:22:28.234Z,17.00
2018-04-12T00:24:56.486Z,13.95
2018-04-12T00:27:23.985Z,15.23
2018-04-12T00:29:52.233Z,14.68
2018-04-12T00:32:19.729Z,13.27
2018-04-12T00:34:47.973Z,13.70
2018-04-12T00:37:15.469Z,16.70
2018-04-12T00:39:42.954Z,22.48
2018-04-12T00:42:10.445Z,15.25
2018-04-12T00:44:37.930Z,16.83
2018-04-12T00:47:06.207Z,14.95
2018-04-12T00:49:34.458Z,12.27
2018-04-12T00:52:01.958Z,18.12
2018-04-12T00:54:29.446Z,10.52
2018-04-12T00:56:56.942Z,14.85
2018-04-12T00:59:24.425Z,13.02
2018-04-12T01:01:52.695Z,13.90
2018-04-12T01:04:20.945Z,12.75
2018-04-12T01:06:48.433Z,14.10
2018-04-12T01:09:16.682Z,10.35
2018-04-12T01:11:44.169Z,15.85
2018-04-12T01:14:12.413Z,13.50
2018-04-12T01:16:39.922Z,10.93
2018-04-12T01:19:07.398Z,14.25
2018-04-12T01:21:47.425Z,14.45
2018-04-12T01:24:14.897Z,14.25
2018-04-12T01:26:42.397Z,12.52
2018-04-12T01:29:09.873Z,15.55
2018-04-12T01:31:37.350Z,13.75
2018-04-12T01:34:05.612Z,13.95
2018-04-12T01:36:33.089Z,17.70
2018-04-12T01:39:01.346Z,14.45
2018-04-12T01:41:28.821Z,17.42
2018-04-12T01:43:57.085Z,13.65
2018-04-12T01:46:24.569Z,13.20
2018-04-12T01:48:52.834Z,12.90
2018-04-12T01:51:21.072Z,19.75
2018-04-12T01:53:48.565Z,12.37
2018-04-12T01:56:16.045Z,14.43
2018-04-12T01:58:44.297Z,14.05
2018-04-12T02:01:11.774Z,13.30
2018-04-12T02:03:40.038Z,20.12
2018-04-12T02:06:08.280Z,14.38
2018-04-12T02:08:35.774Z,14.73
2018-04-12T02:11:03.250Z,19.02
2018-04-12T02:13:31.522Z,19.20
2018-04-12T02:15:59.770Z,16.85
2018-04-12T02:18:27.257Z,19.73
2018-04-12T02:20:55.506Z,13.65
2018-04-12T02:23:22.994Z,14.98
2018-04-12T02:25:51.237Z,19.98
2018-04-12T02:28:18.729Z,11.38
2018-04-12T02:30:46.982Z,13.23
2018-04-12T02:33:14.472Z,20.05
2018-04-12T02:35:42.720Z,11.45
2018-04-12T02:38:10.225Z,13.60
2018-04-12T02:40:37.704Z,14.73
2018-04-12T02:43:05.201Z,16.75
2018-04-12T02:45:32.673Z,17.10
2018-04-12T02:48:00.925Z,15.77
2018-04-12T02:50:28.414Z,15.35
2018-04-12T02:52:56.665Z,12.68
2018-04-12T02:55:25.779Z,16.87
2018-04-12T02:57:53.249Z,16.23
2018-04-12T03:00:21.509Z,16.15
2018-04-12T03:02:48.985Z,13.52
2018-04-12T03:05:16.477Z,18.33
2018-04-12T03:07:43.983Z,20.65
2018-04-12T03:10:11.463Z,16.73
2018-04-12T03:12:38.945Z,18.48
2018-04-12T03:15:06.432Z,19.12
2018-04-12T03:17:33.910Z,19.48
2018-04-12T03:20:01.409Z,16.33
2018-04-12T03:22:28.893Z,18.08
2018-04-12T03:24:56.390Z,15.95
2018-04-12T03:27:23.870Z,16.17
2018-04-12T03:29:52.181Z,17.58
2018-04-12T03:32:20.393Z,16.67
2018-04-12T03:34:47.882Z,16.37
2018-04-12T03:37:16.142Z,21.25
2018-04-12T03:39:43.641Z,18.83
2018-04-12T03:42:11.150Z,15.07
2018-04-12T03:44:38.625Z,14.48
2018-04-12T03:47:06.100Z,20.70
2018-04-12T03:49:34.362Z,27.08
2018-04-12T03:52:01.845Z,24.77
2018-04-12T03:54:29.330Z,17.08
2018-04-12T03:56:56.831Z,16.10
2018-04-12T03:59:24.309Z,21.75
2018-04-12T04:01:52.569Z,18.52
2018-04-12T04:04:20.054Z,19.48
2018-04-12T04:06:48.310Z,18.50
2018-04-12T04:09:15.792Z,19.05
2018-04-12T04:11:44.205Z,18.42
2018-04-12T04:14:23.595Z,15.60
2018-04-12T04:17:03.735Z,24.80
2018-04-12T04:19:43.241Z,23.02
2018-04-12T04:22:10.841Z,25.08
2018-04-12T04:24:38.496Z,24.40
2018-04-12T04:27:06.125Z,31.02
2018-04-12T04:29:33.685Z,19.10
2018-04-12T04:32:01.289Z,29.37
2018-04-12T04:34:28.809Z,27.90
2018-04-12T04:36:56.301Z,22.98
2018-04-12T04:39:23.846Z,19.62
2018-04-12T04:41:51.529Z,16.90
2018-04-12T04:44:20.738Z,25.85
2018-04-12T04:46:49.071Z,24.02
2018-04-12T04:49:16.633Z,24.95
2018-04-12T04:51:44.224Z,17.75
2018-04-12T04:54:11.892Z,21.08
2018-04-12T04:56:39.449Z,33.33
2018-04-12T04:59:06.986Z,27.37
2018-04-12T05:01:34.489Z,25.65
2018-04-12T05:04:02.005Z,23.45
2018-04-12T05:06:42.098Z,20.10
2018-04-12T05:09:09.581Z,21.62
2018-04-12T05:14:23.250Z,18.17
2018-04-12T05:17:05.693Z,17.62
2018-04-12T05:19:33.181Z,21.70
2018-04-12T05:22:00.689Z,22.37
2018-04-12T05:24:43.121Z,20.10
2018-04-12T05:27:26.986Z,28.95
2018-04-12T05:30:09.590Z,20.45
2018-04-12T05:32:37.082Z,18.40
2018-04-12T05:35:17.974Z,18.35
2018-04-12T05:37:57.751Z,19.35
2018-04-12T05:43:18.833Z,17.40
2018-04-12T05:45:58.934Z,15.63
2018-04-12T05:48:42.782Z,24.73
2018-04-12T05:51:10.269Z,27.40
2018-04-12T05:53:51.165Z,23.77
2018-04-12T05:56:31.877Z,26.37
2018-04-12T05:58:59.362Z,24.75
2018-04-12T06:01:26.865Z,26.67
2018-04-12T06:03:55.109Z,28.05
2018-04-12T06:06:22.589Z,28.30
2018-04-12T06:08:50.863Z,37.67
2018-04-12T06:11:18.343Z,38.47
2018-04-12T06:13:46.613Z,40.90
2018-04-12T06:16:14.874Z,53.13
2018-04-12T06:18:42.369Z,62.03
2018-04-12T06:21:09.871Z,25.48
2018-04-12T06:23:37.373Z,35.33
2018-04-12T06:26:05.626Z,32.53
2018-04-12T06:28:33.125Z,31.60
2018-04-12T06:31:00.608Z,33.15
2018-04-12T06:33:28.114Z,26.17
2018-04-12T06:35:55.603Z,27.60
2018-04-12T06:38:23.122Z,35.75
2018-04-12T06:40:50.614Z,36.28
2018-04-12T06:43:18.884Z,32.15
2018-04-12T06:45:47.141Z,24.98
2018-04-12T06:48:14.645Z,26.65
2018-04-12T06:50:42.133Z,29.65
2018-04-12T06:53:09.633Z,25.02
2018-04-12T06:55:37.881Z,19.90
2018-04-12T06:58:05.396Z,22.10
2018-04-12T07:00:32.885Z,20.77
2018-04-12T07:03:00.392Z,23.85
2018-04-12T07:05:28.650Z,14.32
2018-04-12T07:07:56.947Z,20.20
2018-04-12T07:10:25.199Z,18.87
2018-04-12T07:12:52.698Z,24.15
2018-04-12T07:15:20.201Z,17.85
2018-04-12T07:17:47.698Z,21.42
2018-04-12T07:20:15.961Z,18.77
2018-04-12T07:22:43.452Z,25.10
2018-04-12T07:25:10.952Z,15.80
2018-04-12T07:27:38.444Z,38.47
2018-04-12T07:30:06.717Z,23.60
2018-04-12T07:32:34.208Z,30.42
2018-04-12T07:35:01.742Z,22.95
2018-04-12T07:37:29.222Z,18.98
2018-04-12T07:40:00.122Z,19.90
2018-04-12T07:42:27.696Z,29.08
2018-04-12T07:44:55.190Z,26.80
2018-04-12T07:47:22.677Z,19.10
2018-04-12T07:49:50.182Z,23.30
2018-04-12T07:52:18.433Z,20.95
2018-04-12T07:54:45.939Z,18.12
2018-04-12T07:57:13.433Z,23.80
2018-04-12T07:59:40.942Z,19.85
2018-04-12T08:02:09.251Z,23.92
2018-04-12T08:04:36.701Z,24.27
2018-04-12T08:07:04.186Z,29.90
2018-04-12T08:09:31.687Z,17.42
2018-04-12T08:11:59.940Z,17.70
2018-04-12T08:14:27.433Z,17.65
2018-04-12T08:16:55.678Z,14.60
2018-04-12T08:19:23.243Z,11.43
2018-04-12T08:21:50.723Z,8.65
2018-04-12T08:24:18.989Z,8.00
2018-04-12T08:26:46.465Z,8.88
2018-04-12T08:29:14.729Z,8.73
2018-04-12T08:31:42.201Z,7.87
2018-04-12T08:34:10.449Z,9.10
2018-04-12T08:36:37.941Z,10.88
2018-04-12T08:39:06.267Z,6.68
2018-04-12T08:41:33.782Z,8.32
2018-04-12T08:44:02.029Z,9.70
2018-04-12T08:46:29.526Z,12.30
2018-04-12T08:48:57.010Z,11.15
2018-04-12T08:51:24.510Z,7.15
2018-04-12T08:53:51.990Z,11.65
2018-04-12T08:56:20.257Z,7.60
2018-04-12T08:58:48.505Z,7.32
2018-04-12T09:01:16.004Z,6.50
2018-04-12T09:03:44.259Z,10.05
2018-04-12T09:06:11.760Z,12.15
2018-04-12T09:08:39.233Z,8.38
2018-04-12T09:11:06.730Z,6.25
2018-04-12T09:13:34.216Z,4.43
2018-04-12T09:16:02.481Z,5.35
2018-04-12T09:18:29.957Z,10.05
2018-04-12T09:20:58.217Z,3.78
2018-04-12T09:23:26.469Z,7.18
2018-04-12T09:25:53.975Z,4.97
2018-04-12T09:28:21.458Z,7.43
2018-04-12T09:30:48.937Z,6.12
2018-04-12T09:33:16.437Z,6.20
2018-04-12T09:35:44.682Z,2.10
2018-04-12T09:38:12.177Z,3.45
2018-04-12T09:40:40.421Z,5.12
2018-04-12T09:43:07.919Z,4.10
2018-04-12T09:45:36.169Z,4.20
2018-04-12T09:48:03.704Z,6.25
2018-04-12T09:50:31.178Z,4.68
2018-04-12T09:52:58.677Z,7.55
2018-04-12T09:55:26.921Z,5.60
2018-04-12T09:57:54.421Z,5.78
2018-04-12T10:00:26.810Z,10.10
2018-04-12T10:02:56.107Z,5.82
2018-04-12T10:05:29.513Z,5.12
2018-04-12T10:08:02.678Z,6.37
2018-04-12T10:10:30.920Z,3.70
2018-04-12T10:12:58.424Z,5.93
2018-04-12T10:15:25.905Z,2.78
2018-04-12T10:17:53.405Z,3.50
2018-04-12T10:20:20.888Z,4.22
2018-04-12T10:22:48.381Z,3.58
2018-04-12T10:25:15.854Z,2.35
2018-04-12T10:27:44.119Z,2.75
2018-04-12T10:30:11.597Z,2.62
2018-04-12T10:32:39.853Z,7.78
2018-04-12T10:35:07.329Z,7.07
2018-04-12T10:37:35.601Z,1.95
2018-04-12T10:40:03.845Z,5.85
2018-04-12T10:42:31.329Z,5.53
2018-04-12T10:44:59.605Z,9.65
2018-04-12T10:47:27.081Z,3.58
2018-04-12T10:49:55.340Z,4.35
2018-04-12T10:52:22.817Z,3.72
2018-04-12T10:54:51.085Z,1.98
2018-04-12T10:57:19.330Z,2.25
2018-04-12T10:59:46.825Z,1.65
2018-04-12T11:02:15.076Z,4.90
2018-04-12T11:04:42.566Z,3.08
2018-04-12T11:07:10.806Z,8.00
2018-04-12T11:09:38.302Z,1.45
2018-04-12T11:12:06.551Z,4.75
2018-04-12T11:14:34.049Z,8.57
2018-04-12T11:17:01.533Z,3.25
2018-04-12T11:19:29.030Z,3.15
2018-04-12T11:21:56.956Z,2.87
2018-04-12T11:24:24.463Z,1.73
2018-04-12T11:26:51.937Z,3.00
2018-04-12T11:29:20.235Z,1.50
2018-04-12T11:31:47.727Z,1.48
2018-04-12T11:34:15.270Z,3.05
2018-04-12T11:36:42.741Z,4.03
2018-04-12T11:39:10.239Z,1.58
2018-04-12T11:41:38.486Z,1.40
2018-04-12T11:44:05.986Z,1.17
2018-04-12T11:46:34.233Z,2.12
2018-04-12T11:49:01.770Z,1.98
2018-04-12T11:51:29.237Z,1.70
2018-04-12T11:53:56.742Z,2.75
2018-04-12T11:56:24.997Z,1.35
2018-04-12T11:58:52.493Z,1.20
2018-04-12T12:01:20.741Z,1.62
2018-04-12T12:03:48.233Z,2.25
2018-04-12T12:06:15.726Z,1.08
2018-04-12T12:08:43.226Z,1.12
2018-04-12T12:11:10.723Z,5.97
2018-04-12T12:13:38.204Z,2.45
2018-04-12T12:16:05.722Z,2.00
2018-04-12T12:18:33.970Z,1.33
2018-04-12T12:21:01.466Z,0.75
2018-04-12T12:23:29.715Z,1.55
2018-04-12T12:25:57.983Z,1.05
2018-04-12T12:28:25.464Z,1.15
2018-04-12T12:30:53.717Z,2.28
2018-04-12T12:33:21.221Z,0.95
2018-04-12T12:35:48.720Z,0.80
2018-04-12T12:38:16.203Z,0.90
2018-04-12T12:40:43.697Z,2.80
2018-04-12T12:43:11.181Z,0.70
2018-04-12T12:45:38.673Z,1.42
2018-04-12T12:48:06.148Z,1.17
2018-04-12T12:50:34.414Z,1.40
2018-04-12T12:53:01.898Z,1.83
2018-04-12T12:55:30.161Z,1.95
2018-04-12T12:57:57.635Z,1.00
2018-04-12T13:00:25.898Z,1.25
2018-04-12T13:02:54.145Z,2.58
2018-04-12T13:05:21.642Z,0.55
2018-04-12T13:07:49.881Z,1.25
2018-04-12T13:10:17.385Z,1.65
2018-04-12T13:12:45.630Z,2.15
2018-04-12T13:15:13.121Z,0.98
2018-04-12T13:17:41.361Z,1.95
2018-04-12T13:20:08.865Z,3.67
2018-04-12T13:22:36.342Z,1.20
2018-04-12T13:25:03.872Z,2.28
2018-04-12T13:27:31.338Z,1.40
2018-04-12T13:29:58.820Z,3.87
2018-04-12T13:32:26.318Z,2.28
2018-04-12T13:34:53.802Z,2.95
2018-04-12T13:37:22.060Z,4.70
2018-04-12T13:39:49.549Z,2.17
2018-04-12T13:42:17.049Z,6.07
2018-04-12T13:44:44.530Z,2.90
2018-04-12T13:47:12.017Z,3.08
2018-04-12T13:49:40.266Z,1.67
2018-04-12T13:52:07.766Z,0.90
2018-04-12T13:54:35.249Z,1.37
2018-04-12T13:57:02.750Z,4.70
2018-04-12T13:59:30.231Z,3.42
2018-04-12T14:01:58.497Z,3.62
2018-04-12T14:04:26.745Z,3.53
2018-04-12T14:06:54.241Z,1.98
2018-04-12T14:09:22.489Z,1.25
2018-04-12T14:11:49.977Z,1.02
2018-04-12T14:14:18.229Z,1.08
2018-04-12T14:16:45.720Z,2.80
2018-04-12T14:19:13.969Z,1.40
2018-04-12T14:21:41.468Z,3.15
2018-04-12T14:24:08.949Z,1.70
2018-04-12T14:26:36.447Z,0.70
2018-04-12T14:29:03.921Z,1.70
2018-04-12T14:31:32.183Z,2.50
2018-04-12T14:33:59.659Z,0.70
2018-04-12T14:36:27.925Z,3.00
2018-04-12T14:38:55.405Z,2.87
2018-04-12T14:41:23.665Z,3.30
2018-04-12T14:43:51.914Z,2.35
2018-04-12T14:46:19.405Z,5.65
2018-04-12T14:48:47.662Z,3.08
2018-04-12T14:51:15.165Z,1.70
2018-04-12T14:53:43.412Z,9.68
2018-04-12T14:56:11.657Z,1.62
2018-04-12T14:58:39.153Z,1.10
2018-04-12T15:01:07.414Z,2.45
2018-04-12T15:03:36.794Z,6.40
2018-04-12T15:06:04.289Z,1.48
2018-04-12T15:08:31.806Z,0.90
2018-04-12T15:10:59.286Z,2.90
2018-04-12T15:13:26.792Z,2.97
2018-04-12T15:15:54.292Z,1.42
2018-04-12T15:18:22.175Z,2.35
2018-04-12T15:20:50.443Z,1.85
2018-04-12T15:23:17.947Z,5.47
2018-04-12T15:25:45.433Z,0.82
2018-04-12T15:28:12.945Z,2.40
2018-04-12T15:30:41.204Z,3.53
2018-04-12T15:33:08.702Z,1.77
2018-04-12T15:35:36.194Z,2.50
2018-04-12T15:38:03.726Z,1.37
2018-04-12T15:40:31.214Z,2.30
2018-04-12T15:42:58.717Z,5.85
2018-04-12T15:45:26.967Z,3.25
2018-04-12T15:47:54.482Z,4.82
2018-04-12T15:50:21.969Z,1.50
2018-04-12T15:52:49.474Z,3.60
2018-04-12T15:55:17.728Z,3.00
2018-04-12T15:57:45.249Z,1.20
2018-04-12T16:00:12.753Z,4.30
2018-04-12T16:02:40.260Z,1.80
2018-04-12T16:05:07.746Z,7.22
2018-04-12T16:07:35.253Z,3.85
2018-04-12T16:10:03.509Z,3.42
2018-04-12T16:12:31.025Z,3.80
2018-04-12T16:14:58.505Z,2.33
2018-04-12T16:17:25.990Z,1.70
2018-04-12T16:19:54.253Z,5.07
2018-04-12T16:22:21.745Z,3.05
2018-04-12T16:24:50.010Z,2.72
2018-04-12T16:27:18.273Z,2.85
2018-04-12T16:29:45.795Z,2.40
2018-04-12T16:32:13.291Z,4.55
2018-04-12T16:34:41.563Z,4.93
2018-04-12T16:37:09.053Z,1.05
2018-04-12T16:39:37.322Z,3.80
2018-04-12T16:42:05.572Z,4.10
2018-04-12T16:44:33.073Z,0.98
2018-04-12T16:47:00.552Z,3.70
2018-04-12T16:49:28.049Z,1.37
2018-04-12T16:51:55.540Z,2.42
2018-04-12T16:54:23.965Z,3.47
2018-04-12T16:56:51.445Z,2.80
2018-04-12T16:59:18.941Z,1.00
2018-04-12T17:01:47.184Z,2.25
2018-04-12T17:04:14.682Z,3.58
2018-04-12T17:06:42.925Z,6.70
2018-04-12T17:09:10.446Z,1.45
2018-04-12T17:11:37.993Z,9.07
2018-04-12T17:14:05.505Z,1.20
2018-04-12T17:16:32.989Z,5.40
2018-04-12T17:19:01.326Z,3.33
2018-04-12T17:21:29.623Z,2.70
2018-04-12T17:23:57.122Z,1.45
2018-04-12T17:26:25.365Z,1.00
2018-04-12T17:28:52.841Z,2.78
2018-04-12T17:31:21.100Z,1.60
2018-04-12T17:33:48.576Z,2.35
2018-04-12T17:36:16.837Z,2.83
2018-04-12T17:38:44.330Z,0.93
2018-04-12T17:41:11.937Z,1.95
2018-04-12T17:43:39.422Z,1.60
2018-04-12T17:46:07.701Z,3.15
2018-04-12T17:48:35.185Z,2.47
2018-04-12T17:51:02.686Z,4.50
2018-04-12T17:53:30.163Z,1.67
2018-04-12T17:55:58.433Z,7.32
2018-04-12T17:58:25.906Z,2.00
2018-04-12T18:00:53.462Z,2.10
2018-04-12T18:03:21.711Z,3.55
2018-04-12T18:05:49.201Z,3.45
2018-04-12T18:08:17.477Z,3.35
2018-04-12T18:10:45.742Z,2.42
2018-04-12T18:13:13.995Z,2.90
2018-04-12T18:15:41.509Z,2.97
2018-04-12T18:18:09.018Z,1.90
2018-04-12T18:20:36.526Z,4.05
2018-04-12T18:23:04.014Z,3.50
2018-04-12T18:25:31.521Z,1.25
2018-04-12T18:27:59.769Z,1.48
2018-04-12T18:30:27.270Z,4.87
2018-04-12T18:32:54.755Z,3.37
2018-04-12T18:35:22.320Z,1.90
2018-04-12T18:37:49.810Z,2.10
2018-04-12T18:40:17.435Z,2.65
2018-04-12T18:42:44.975Z,3.22
2018-04-12T18:45:12.466Z,1.80
2018-04-12T18:47:39.957Z,3.20
2018-04-12T18:50:07.441Z,3.35
2018-04-12T18:52:35.711Z,4.85
2018-04-12T18:55:03.965Z,4.43
2018-04-12T18:57:31.465Z,4.00
2018-04-12T18:59:59.703Z,5.25
2018-04-12T19:02:28.093Z,3.67
2018-04-12T19:04:55.582Z,3.40
2018-04-12T19:07:23.849Z,4.78
2018-04-12T19:09:52.112Z,3.35
2018-04-12T19:12:20.394Z,5.12
2018-04-12T19:14:47.882Z,5.35
2018-04-12T19:17:15.386Z,8.27
2018-04-12T19:19:42.868Z,3.15
2018-04-12T19:22:10.370Z,7.05
2018-04-12T19:24:37.854Z,2.65
2018-04-12T19:27:05.349Z,2.78
2018-04-12T19:29:33.597Z,7.22
2018-04-12T19:32:01.106Z,4.68
2018-04-12T19:34:29.345Z,6.62
2018-04-12T19:36:56.840Z,3.03
2018-04-12T19:39:25.096Z,4.35
2018-04-12T19:41:53.392Z,12.18
2018-04-12T19:44:21.634Z,4.85
2018-04-12T19:46:49.578Z,10.43
2018-04-12T19:49:17.081Z,5.18
2018-04-12T19:51:44.593Z,7.30
2018-04-12T19:54:12.077Z,7.87
2018-04-12T19:56:39.586Z,11.02
2018-04-12T19:59:07.066Z,6.97
2018-04-12T20:01:34.553Z,10.43
2018-04-12T20:04:02.050Z,9.60
2018-04-12T20:06:30.310Z,8.70
2018-04-12T20:08:57.817Z,11.00
2018-04-12T20:11:25.306Z,10.18
2018-04-12T20:13:52.865Z,13.90
2018-04-12T20:16:20.322Z,11.98
2018-04-12T20:18:47.847Z,15.23
2018-04-12T20:21:15.346Z,12.95
2018-04-12T20:23:42.861Z,19.17
2018-04-12T20:26:10.344Z,9.88
2018-04-12T20:28:37.841Z,14.65
2018-04-12T20:31:05.334Z,11.25
2018-04-12T20:33:32.828Z,13.65
2018-04-12T20:36:00.375Z,18.80
2018-04-12T20:38:28.372Z,12.68
2018-04-12T20:40:55.870Z,22.02
2018-04-12T20:43:24.150Z,15.30
2018-04-12T20:45:51.707Z,17.52
2018-04-12T20:48:19.974Z,14.80
2018-04-12T20:50:48.234Z,13.77
2018-04-12T20:53:15.738Z,16.30
2018-04-12T20:55:43.242Z,27.08
2018-04-12T20:58:10.866Z,25.17
2018-04-12T21:00:38.353Z,12.32
2018-04-12T21:03:05.847Z,22.13
2018-04-12T21:05:33.381Z,21.23
2018-04-12T21:08:00.878Z,23.10
2018-04-12T21:10:29.147Z,19.98
2018-04-12T21:12:57.410Z,23.00
2018-04-12T21:15:24.918Z,18.08
2018-04-12T21:17:52.453Z,13.75
2018-04-12T21:20:19.965Z,12.63
2018-04-12T21:22:47.453Z,19.25
2018-04-12T21:25:15.741Z,20.00
2018-04-12T21:27:43.225Z,20.23
2018-04-12T21:30:10.729Z,16.60
2018-04-12T21:32:38.265Z,18.30
2018-04-12T21:35:05.774Z,16.02
2018-04-12T21:37:34.029Z,20.30
2018-04-12T21:40:01.538Z,16.10
2018-04-12T21:42:29.025Z,21.92
2018-04-12T21:44:56.526Z,14.77
2018-04-12T21:47:24.009Z,15.77
2018-04-12T21:49:52.269Z,14.80
2018-04-12T21:52:22.561Z,14.32
2018-04-12T21:54:50.066Z,15.95
2018-04-12T21:57:18.317Z,19.42
2018-04-12T21:59:45.818Z,16.20
2018-04-12T22:02:14.244Z,15.65
2018-04-12T22:04:41.746Z,17.45
2018-04-12T22:07:09.993Z,12.43
2018-04-12T22:09:37.495Z,18.37
2018-04-12T22:12:04.985Z,15.13
2018-04-12T22:14:32.489Z,10.38
2018-04-12T22:17:00.735Z,11.73
2018-04-12T22:19:28.237Z,13.38
2018-04-12T22:21:56.494Z,12.75
2018-04-12T22:24:24.667Z,13.70
2018-04-12T22:26:52.163Z,11.23
2018-04-12T22:29:19.642Z,16.40
2018-04-12T22:32:01.297Z,11.60
2018-04-12T22:34:29.542Z,16.45
2018-04-12T22:36:57.045Z,19.85
2018-04-12T22:39:24.535Z,10.85
2018-04-12T22:41:52.041Z,14.90
2018-04-12T22:44:20.341Z,12.32
2018-04-12T22:46:47.850Z,15.30
2018-04-12T22:49:15.333Z,15.45
2018-04-12T22:51:43.614Z,16.00
2018-04-12T22:54:11.870Z,17.25
2018-04-12T22:56:39.365Z,13.45
2018-04-12T22:59:06.841Z,11.90
2018-04-12T23:01:34.338Z,14.48
2018-04-12T23:04:01.823Z,13.48
2018-04-12T23:06:30.141Z,15.38
2018-04-12T23:08:58.358Z,20.88
2018-04-12T23:11:25.849Z,16.25
2018-04-12T23:13:54.105Z,15.35
2018-04-12T23:16:21.615Z,11.43
2018-04-12T23:18:49.102Z,12.18
2018-04-12T23:21:16.597Z,11.38
2018-04-12T23:23:44.073Z,12.07
2018-04-12T23:26:11.577Z,12.60
2018-04-12T23:28:39.061Z,11.82
2018-04-12T23:31:06.552Z,13.02
2018-04-12T23:33:34.798Z,10.18
2018-04-12T23:36:03.064Z,14.43
2018-04-12T23:38:30.549Z,13.48
2018-04-12T23:40:58.818Z,8.95
2018-04-12T23:43:26.301Z,21.52
2018-04-12T23:45:54.558Z,12.20
2018-04-12T23:48:22.817Z,21.10
2018-04-12T23:50:50.304Z,12.57
2018-04-12T23:53:18.581Z,19.15
2018-04-12T23:55:46.821Z,15.07
2018-04-12T23:58:14.323Z,16.55
